»·PEaware :: N287JB KLAX-KPSP

N287JB :: KLAX-KPSP

FLIGHT INFORMATION

Flight Status: Arrived
Operator: Privately registered:
United States
More flights under this callsign
Pilot: John L. (16055)
Aircraft: Unknown
(EPIC)
More flights by this aircraft type
Origin: KLAX Los Angeles Intl
United States
Destination: KPSP Palm Springs Intl
United States
More flights between these airports :: More routes between these airports
Route: +SLI8 SLI V64 TRM
File this flight plan on PilotEdge
Remarks: N287JB
Altitude:
(Current/Filed)
13,000ft
Speed:
(Current/Filed)
280kts
Departed: 22-Sep-17 06:33 PM
Arrived: 22-Sep-17 07:15 PM
Distance/Time
Traveled:
95nm/0:42
Distance/Time
To Go:
Arrived

Flight Plot

Page will automatically refresh every two minutes.

Flight plan parsing failed; only flown route is shown


Map Options




Map Legend


Flown Route
Filed Route
Departure Airport
Arrival Airport
Navaid (VOR, NDB)
Fix

Horizontal Profiles

Position Reports

Time Latitude Longitude Heading Altitude Ground
Speed
22-Sep-17 18:10 33.932900 -118.399799 78 129ft 0kts
22-Sep-17 18:11 33.932900 -118.399799 78 129ft 0kts
22-Sep-17 18:12 33.932900 -118.399799 78 129ft 0kts
22-Sep-17 18:13 33.932900 -118.399799 78 129ft 0kts
22-Sep-17 18:14 33.932900 -118.399799 78 129ft 0kts
22-Sep-17 18:15 33.932900 -118.399799 78 129ft 0kts
22-Sep-17 18:16 33.932900 -118.399799 78 129ft 0kts
22-Sep-17 18:17 33.932900 -118.399799 78 129ft 0kts
22-Sep-17 18:18 33.932900 -118.399799 78 129ft 0kts
22-Sep-17 18:19 33.932900 -118.399799 78 129ft 0kts
22-Sep-17 18:20 33.932900 -118.399799 78 129ft 0kts
22-Sep-17 18:21 33.932900 -118.399799 78 129ft 0kts
22-Sep-17 18:22 33.932900 -118.399799 78 129ft 0kts
22-Sep-17 18:23 33.932900 -118.399799 78 129ft 0kts
22-Sep-17 18:24 33.932900 -118.399799 78 129ft 0kts
22-Sep-17 18:25 33.932900 -118.399799 78 129ft 0kts
22-Sep-17 18:26 33.932900 -118.399799 78 129ft 0kts
22-Sep-17 18:27 33.932900 -118.399799 78 129ft 0kts
22-Sep-17 18:28 33.932900 -118.399799 78 129ft 0kts
22-Sep-17 18:29 33.932900 -118.399799 78 129ft 0kts
22-Sep-17 18:30 33.933737 -118.398590 94 129ft 15kts
22-Sep-17 18:31 33.935060 -118.393184 81 129ft 35kts
22-Sep-17 18:32 33.935973 -118.384410 80 129ft 11kts
22-Sep-17 18:33 33.936338 -118.382833 26 129ft 0kts
22-Sep-17 18:34 33.936338 -118.382833 26 129ft 0kts
22-Sep-17 18:35 33.936338 -118.382833 26 129ft 0kts
22-Sep-17 18:36 33.936338 -118.382833 26 129ft 0kts
22-Sep-17 18:37 33.936925 -118.388144 265 138ft 94kts
22-Sep-17 18:38 33.931319 -118.436799 263 2127ft 179kts
22-Sep-17 18:39 33.895337 -118.473916 212 4910ft 193kts
22-Sep-17 18:40 33.842505 -118.511255 207 5623ft 234kts
22-Sep-17 18:41 33.789385 -118.522626 192 8216ft 201kts
22-Sep-17 18:42 33.732955 -118.533258 192 9958ft 211kts
22-Sep-17 18:43 33.674773 -118.543855 192 11571ft 216kts
22-Sep-17 18:44 33.615094 -118.554314 192 12975ft 230kts
22-Sep-17 18:45 33.551338 -118.539579 118 12999ft 283kts
22-Sep-17 18:46 33.550898 -118.445699 85 12996ft 294kts
22-Sep-17 18:47 33.555216 -118.349005 86 12995ft 298kts
22-Sep-17 18:48 33.559043 -118.257376 86 12995ft 298kts
22-Sep-17 18:49 33.562877 -118.164431 86 12995ft 299kts
22-Sep-17 18:50 33.566611 -118.071790 86 12995ft 299kts
22-Sep-17 18:51 33.570011 -117.985770 86 12996ft 300kts
22-Sep-17 18:52 33.573334 -117.900301 86 12996ft 300kts
22-Sep-17 18:53 33.577015 -117.803670 86 13087ft 298kts
22-Sep-17 18:54 33.580585 -117.707979 86 13088ft 299kts
22-Sep-17 18:55 33.584023 -117.613739 86 13086ft 294kts
22-Sep-17 18:56 33.587339 -117.521391 86 13087ft 279kts
22-Sep-17 18:57 33.590463 -117.432452 86 13088ft 274kts
22-Sep-17 18:58 33.593454 -117.345511 86 13088ft 273kts
22-Sep-17 18:59 33.596412 -117.257714 86 13086ft 272kts
22-Sep-17 19:00 33.598862 -117.183546 86 13086ft 272kts
22-Sep-17 19:01 33.602260 -117.078313 86 13086ft 272kts
22-Sep-17 19:02 33.605090 -116.988355 86 13083ft 273kts
22-Sep-17 19:03 33.607435 -116.912482 86 12995ft 275kts
22-Sep-17 19:04 33.610177 -116.821372 86 12979ft 274kts
22-Sep-17 19:05 33.654773 -116.731491 51 11961ft 281kts
22-Sep-17 19:06 33.693263 -116.668277 51 10726ft 284kts
22-Sep-17 19:07 33.732107 -116.586130 61 9238ft 286kts
22-Sep-17 19:08 33.762165 -116.512964 61 8959ft 192kts
22-Sep-17 19:09 33.785250 -116.454589 61 6944ft 210kts
22-Sep-17 19:10 33.811221 -116.390202 62 4486ft 221kts
22-Sep-17 19:11 33.832579 -116.328077 118 3121ft 165kts
22-Sep-17 19:12 33.804765 -116.319576 237 3135ft 151kts
22-Sep-17 19:13 33.797012 -116.372006 252 3180ft 198kts
22-Sep-17 19:14 33.770286 -116.430726 292 2617ft 176kts
22-Sep-17 19:15 33.779814 -116.451216 288 2149ft 97kts
22-Sep-17 19:16 33.788961 -116.471439 316 1661ft 91kts
22-Sep-17 19:17 33.803489 -116.484184 312 1008ft 85kts
22-Sep-17 19:18 33.817884 -116.497147 317 614ft 88kts
22-Sep-17 19:19 33.827654 -116.506015 322 481ft 19kts
22-Sep-17 19:20 33.828642 -116.508964 253 481ft 13kts
22-Sep-17 19:21 33.827575 -116.508814 193 481ft 1kts
22-Sep-17 19:22 33.827532 -116.508827 200 481ft 0kts
22-Sep-17 19:23 33.827532 -116.508827 200 481ft 0kts
22-Sep-17 19:24 33.827532 -116.508827 200 481ft 0kts
22-Sep-17 19:25 33.827532 -116.508827 200 481ft 0kts
22-Sep-17 19:26 33.827532 -116.508827 200 481ft 0kts
22-Sep-17 19:27 33.827532 -116.508827 200 481ft 0kts
22-Sep-17 19:28 33.827532 -116.508827 200 481ft 0kts
22-Sep-17 19:29 33.827532 -116.508827 200 481ft 0kts

Navigation Log

Ident Type
Flight plan parsing failed, navigation log unavailable